sensor_id;sensor_type;location;lat;lon;timestamp;temperature;humidity
28460;DHT22;32528;45.712;9.192;2023-05-16T00:00:15;14.40;99.90
28460;DHT22;32528;45.712;9.192;2023-05-16T00:02:17;14.40;99.90
28460;DHT22;32528;45.712;9.192;2023-05-16T00:04:19;14.30;99.90
28460;DHT22;32528;45.712;9.192;2023-05-16T00:06:20;14.30;99.90
28460;DHT22;32528;45.712;9.192;2023-05-16T00:08:22;14.20;99.90
28460;DHT22;32528;45.712;9.192;2023-05-16T00:10:23;14.20;99.90
28460;DHT22;32528;45.712;9.192;2023-05-16T00:12:24;14.20;99.90
28460;DHT22;32528;45.712;9.192;2023-05-16T00:14:25;14.20;99.90
28460;DHT22;32528;45.712;9.192;2023-05-16T00:16:27;14.20;99.90
28460;DHT22;32528;45.712;9.192;2023-05-16T00:18:29;14.20;99.90
28460;DHT22;32528;45.712;9.192;2023-05-16T00:20:30;14.20;99.90
28460;DHT22;32528;45.712;9.192;2023-05-16T00:22:31;14.20;99.90
28460;DHT22;32528;45.712;9.192;2023-05-16T00:24:33;14.10;99.90
28460;DHT22;32528;45.712;9.192;2023-05-16T00:26:33;14.10;99.90
28460;DHT22;32528;45.712;9.192;2023-05-16T00:28:35;14.20;99.90
28460;DHT22;32528;45.712;9.192;2023-05-16T00:30:35;14.10;99.90
28460;DHT22;32528;45.712;9.192;2023-05-16T00:32:37;14.10;99.90
28460;DHT22;32528;45.712;9.192;2023-05-16T00:34:37;14.10;99.90
28460;DHT22;32528;45.712;9.192;2023-05-16T00:36:38;14.10;99.90
28460;DHT22;32528;45.712;9.192;2023-05-16T00:38:39;14.10;99.90
28460;DHT22;32528;45.712;9.192;2023-05-16T00:40:41;14.00;99.90
28460;DHT22;32528;45.712;9.192;2023-05-16T00:42:43;14.10;99.90
28460;DHT22;32528;45.712;9.192;2023-05-16T00:44:45;14.00;99.90
28460;DHT22;32528;45.712;9.192;2023-05-16T00:46:46;14.00;99.90
28460;DHT22;32528;45.712;9.192;2023-05-16T00:48:47;13.90;99.90
28460;DHT22;32528;45.712;9.192;2023-05-16T00:50:48;13.80;99.90
28460;DHT22;32528;45.712;9.192;2023-05-16T00:52:49;13.80;99.90
28460;DHT22;32528;45.712;9.192;2023-05-16T00:54:50;13.70;99.90
28460;DHT22;32528;45.712;9.192;2023-05-16T00:56:51;13.70;99.90
28460;DHT22;32528;45.712;9.192;2023-05-16T00:58:52;13.70;99.90
28460;DHT22;32528;45.712;9.192;2023-05-16T01:00:54;13.70;99.90
28460;DHT22;32528;45.712;9.192;2023-05-16T01:02:55;13.60;99.90
28460;DHT22;32528;45.712;9.192;2023-05-16T01:04:57;13.80;99.90
28460;DHT22;32528;45.712;9.192;2023-05-16T01:06:58;13.70;99.90
28460;DHT22;32528;45.712;9.192;2023-05-16T01:08:59;13.60;99.90
28460;DHT22;32528;45.712;9.192;2023-05-16T01:15:55;13.50;99.90
28460;DHT22;32528;45.712;9.192;2023-05-16T01:18:05;13.50;99.90
28460;DHT22;32528;45.712;9.192;2023-05-16T01:26:51;13.30;99.90
28460;DHT22;32528;45.712;9.192;2023-05-16T01:28:52;13.30;99.90
28460;DHT22;32528;45.712;9.192;2023-05-16T01:30:53;13.20;99.90
28460;DHT22;32528;45.712;9.192;2023-05-16T01:32:57;13.30;99.90
28460;DHT22;32528;45.712;9.192;2023-05-16T01:34:58;13.30;99.90
28460;DHT22;32528;45.712;9.192;2023-05-16T01:37:18;13.20;99.90
28460;DHT22;32528;45.712;9.192;2023-05-16T01:39:36;13.30;99.90
28460;DHT22;32528;45.712;9.192;2023-05-16T01:44:01;13.30;99.90
28460;DHT22;32528;45.712;9.192;2023-05-16T01:46:11;13.30;99.90
28460;DHT22;32528;45.712;9.192;2023-05-16T01:48:17;13.30;99.90
28460;DHT22;32528;45.712;9.192;2023-05-16T01:50:21;13.20;99.90
28460;DHT22;32528;45.712;9.192;2023-05-16T01:52:59;13.20;99.90
28460;DHT22;32528;45.712;9.192;2023-05-16T01:54:58;13.20;99.90
28460;DHT22;32528;45.712;9.192;2023-05-16T01:57:03;13.10;99.90
28460;DHT22;32528;45.712;9.192;2023-05-16T01:59:04;13.10;99.90
28460;DHT22;32528;45.712;9.192;2023-05-16T02:01:06;13.00;99.90
28460;DHT22;32528;45.712;9.192;2023-05-16T02:03:08;13.00;99.90
28460;DHT22;32528;45.712;9.192;2023-05-16T02:05:08;13.00;99.90
28460;DHT22;32528;45.712;9.192;2023-05-16T02:07:10;13.00;99.90
28460;DHT22;32528;45.712;9.192;2023-05-16T02:09:11;13.00;99.90
28460;DHT22;32528;45.712;9.192;2023-05-16T02:11:14;13.00;99.90
28460;DHT22;32528;45.712;9.192;2023-05-16T02:13:15;13.00;99.90
28460;DHT22;32528;45.712;9.192;2023-05-16T02:15:16;13.00;99.90
28460;DHT22;32528;45.712;9.192;2023-05-16T02:17:17;12.90;99.90
28460;DHT22;32528;45.712;9.192;2023-05-16T02:19:18;12.90;99.90
28460;DHT22;32528;45.712;9.192;2023-05-16T02:21:19;12.90;99.90
28460;DHT22;32528;45.712;9.192;2023-05-16T02:23:19;13.00;99.90
28460;DHT22;32528;45.712;9.192;2023-05-16T02:25:20;12.90;99.90
28460;DHT22;32528;45.712;9.192;2023-05-16T02:27:22;12.90;99.90
28460;DHT22;32528;45.712;9.192;2023-05-16T02:29:22;12.90;99.90
28460;DHT22;32528;45.712;9.192;2023-05-16T02:31:29;13.00;99.90
28460;DHT22;32528;45.712;9.192;2023-05-16T02:33:30;13.00;99.90
28460;DHT22;32528;45.712;9.192;2023-05-16T02:35:31;13.00;99.90
28460;DHT22;32528;45.712;9.192;2023-05-16T02:37:33;13.00;99.90
28460;DHT22;32528;45.712;9.192;2023-05-16T02:39:34;13.00;99.90
28460;DHT22;32528;45.712;9.192;2023-05-16T02:41:36;13.00;99.90
28460;DHT22;32528;45.712;9.192;2023-05-16T02:43:36;12.90;99.90
28460;DHT22;32528;45.712;9.192;2023-05-16T02:45:37;12.90;99.90
28460;DHT22;32528;45.712;9.192;2023-05-16T02:47:38;12.90;99.90
28460;DHT22;32528;45.712;9.192;2023-05-16T02:49:39;12.90;99.90
28460;DHT22;32528;45.712;9.192;2023-05-16T02:51:41;12.90;99.90
28460;DHT22;32528;45.712;9.192;2023-05-16T02:53:41;12.90;99.90
28460;DHT22;32528;45.712;9.192;2023-05-16T02:55:42;12.90;99.90
28460;DHT22;32528;45.712;9.192;2023-05-16T02:57:43;12.80;99.90
28460;DHT22;32528;45.712;9.192;2023-05-16T02:59:46;12.80;99.90
28460;DHT22;32528;45.712;9.192;2023-05-16T03:01:47;12.90;99.90
28460;DHT22;32528;45.712;9.192;2023-05-16T03:03:48;12.80;99.90
28460;DHT22;32528;45.712;9.192;2023-05-16T03:05:49;12.80;99.90
28460;DHT22;32528;45.712;9.192;2023-05-16T03:07:51;12.80;99.90
28460;DHT22;32528;45.712;9.192;2023-05-16T03:09:51;12.80;99.90
28460;DHT22;32528;45.712;9.192;2023-05-16T03:11:52;12.80;99.90
28460;DHT22;32528;45.712;9.192;2023-05-16T03:13:54;12.70;99.90
28460;DHT22;32528;45.712;9.192;2023-05-16T03:15:55;12.70;99.90
28460;DHT22;32528;45.712;9.192;2023-05-16T03:17:55;12.60;99.90
28460;DHT22;32528;45.712;9.192;2023-05-16T03:19:57;12.60;99.90
28460;DHT22;32528;45.712;9.192;2023-05-16T03:21:58;12.60;99.90
28460;DHT22;32528;45.712;9.192;2023-05-16T03:23:58;12.50;99.90
28460;DHT22;32528;45.712;9.192;2023-05-16T03:25:59;12.50;99.90
28460;DHT22;32528;45.712;9.192;2023-05-16T03:28:04;12.50;99.90
28460;DHT22;32528;45.712;9.192;2023-05-16T03:30:07;12.50;99.90
28460;DHT22;32528;45.712;9.192;2023-05-16T03:32:10;12.50;99.90
28460;DHT22;32528;45.712;9.192;2023-05-16T03:34:11;12.50;99.90
28460;DHT22;32528;45.712;9.192;2023-05-16T03:36:11;12.60;99.90
28460;DHT22;32528;45.712;9.192;2023-05-16T03:38:12;12.50;99.90
28460;DHT22;32528;45.712;9.192;2023-05-16T03:40:13;12.60;99.90
28460;DHT22;32528;45.712;9.192;2023-05-16T03:42:14;12.50;99.90
28460;DHT22;32528;45.712;9.192;2023-05-16T03:44:16;12.60;99.90
28460;DHT22;32528;45.712;9.192;2023-05-16T03:46:16;12.60;99.90
28460;DHT22;32528;45.712;9.192;2023-05-16T03:48:17;12.60;99.90
28460;DHT22;32528;45.712;9.192;2023-05-16T03:50:18;12.60;99.90
28460;DHT22;32528;45.712;9.192;2023-05-16T03:52:19;12.70;99.90
28460;DHT22;32528;45.712;9.192;2023-05-16T03:54:20;12.70;99.90
28460;DHT22;32528;45.712;9.192;2023-05-16T03:56:21;12.70;99.90
28460;DHT22;32528;45.712;9.192;2023-05-16T03:58:21;12.60;99.90
28460;DHT22;32528;45.712;9.192;2023-05-16T04:00:22;12.60;99.90
28460;DHT22;32528;45.712;9.192;2023-05-16T04:02:23;12.60;99.90
28460;DHT22;32528;45.712;9.192;2023-05-16T04:04:24;12.60;99.90
28460;DHT22;32528;45.712;9.192;2023-05-16T04:06:25;12.70;99.90
28460;DHT22;32528;45.712;9.192;2023-05-16T04:08:26;12.60;99.90
28460;DHT22;32528;45.712;9.192;2023-05-16T04:10:27;12.70;99.90
28460;DHT22;32528;45.712;9.192;2023-05-16T04:12:28;12.60;99.90
28460;DHT22;32528;45.712;9.192;2023-05-16T04:14:28;12.60;99.90
28460;DHT22;32528;45.712;9.192;2023-05-16T04:16:30;12.60;99.90
28460;DHT22;32528;45.712;9.192;2023-05-16T04:18:31;12.60;99.90
28460;DHT22;32528;45.712;9.192;2023-05-16T04:20:33;12.60;99.90
28460;DHT22;32528;45.712;9.192;2023-05-16T04:22:35;12.70;99.90
28460;DHT22;32528;45.712;9.192;2023-05-16T04:24:35;12.70;99.90
28460;DHT22;32528;45.712;9.192;2023-05-16T04:26:36;12.70;99.90
28460;DHT22;32528;45.712;9.192;2023-05-16T04:28:37;12.70;99.90
28460;DHT22;32528;45.712;9.192;2023-05-16T04:30:37;12.70;99.90
28460;DHT22;32528;45.712;9.192;2023-05-16T04:32:38;12.70;99.90
28460;DHT22;32528;45.712;9.192;2023-05-16T04:34:39;12.70;99.90
28460;DHT22;32528;45.712;9.192;2023-05-16T04:36:41;12.70;99.90
28460;DHT22;32528;45.712;9.192;2023-05-16T04:38:41;12.80;99.90
28460;DHT22;32528;45.712;9.192;2023-05-16T04:40:43;12.80;99.90
28460;DHT22;32528;45.712;9.192;2023-05-16T04:42:44;12.80;99.90
28460;DHT22;32528;45.712;9.192;2023-05-16T04:44:45;12.80;99.90
28460;DHT22;32528;45.712;9.192;2023-05-16T04:46:47;12.90;99.90
28460;DHT22;32528;45.712;9.192;2023-05-16T04:48:48;12.90;99.90
28460;DHT22;32528;45.712;9.192;2023-05-16T04:50:49;13.00;99.90
28460;DHT22;32528;45.712;9.192;2023-05-16T04:52:52;13.00;99.90
28460;DHT22;32528;45.712;9.192;2023-05-16T04:54:52;13.10;99.90
28460;DHT22;32528;45.712;9.192;2023-05-16T04:56:53;13.00;99.90
28460;DHT22;32528;45.712;9.192;2023-05-16T04:58:54;13.10;99.90
28460;DHT22;32528;45.712;9.192;2023-05-16T05:00:55;13.10;99.90
28460;DHT22;32528;45.712;9.192;2023-05-16T05:02:56;13.20;99.90
28460;DHT22;32528;45.712;9.192;2023-05-16T05:04:57;13.20;99.90
28460;DHT22;32528;45.712;9.192;2023-05-16T05:06:57;13.30;99.90
28460;DHT22;32528;45.712;9.192;2023-05-16T05:08:59;13.30;99.90
28460;DHT22;32528;45.712;9.192;2023-05-16T05:11:00;13.40;99.90
28460;DHT22;32528;45.712;9.192;2023-05-16T05:13:01;13.50;99.90
28460;DHT22;32528;45.712;9.192;2023-05-16T05:15:02;13.40;99.90
28460;DHT22;32528;45.712;9.192;2023-05-16T05:17:03;13.50;99.90
28460;DHT22;32528;45.712;9.192;2023-05-16T05:19:04;13.60;99.90
28460;DHT22;32528;45.712;9.192;2023-05-16T05:21:04;13.70;99.90
28460;DHT22;32528;45.712;9.192;2023-05-16T05:23:05;13.80;99.90
28460;DHT22;32528;45.712;9.192;2023-05-16T05:25:06;13.80;99.90
28460;DHT22;32528;45.712;9.192;2023-05-16T05:27:07;13.90;99.90
28460;DHT22;32528;45.712;9.192;2023-05-16T05:29:08;14.00;99.90
28460;DHT22;32528;45.712;9.192;2023-05-16T05:31:09;14.10;99.90
28460;DHT22;32528;45.712;9.192;2023-05-16T05:33:15;14.20;99.90
28460;DHT22;32528;45.712;9.192;2023-05-16T05:35:16;14.20;99.90
28460;DHT22;32528;45.712;9.192;2023-05-16T05:37:17;14.30;99.90
28460;DHT22;32528;45.712;9.192;2023-05-16T05:39:18;14.40;99.90
28460;DHT22;32528;45.712;9.192;2023-05-16T05:41:18;14.50;99.90
28460;DHT22;32528;45.712;9.192;2023-05-16T05:43:19;14.70;99.90
28460;DHT22;32528;45.712;9.192;2023-05-16T05:45:20;14.80;99.90
28460;DHT22;32528;45.712;9.192;2023-05-16T05:47:21;14.90;99.90
28460;DHT22;32528;45.712;9.192;2023-05-16T05:49:25;15.00;99.90
28460;DHT22;32528;45.712;9.192;2023-05-16T05:51:26;15.10;99.90
28460;DHT22;32528;45.712;9.192;2023-05-16T05:53:27;15.30;99.90
28460;DHT22;32528;45.712;9.192;2023-05-16T05:55:27;15.50;99.90
28460;DHT22;32528;45.712;9.192;2023-05-16T05:57:28;15.60;99.90
28460;DHT22;32528;45.712;9.192;2023-05-16T05:59:29;15.70;99.90
28460;DHT22;32528;45.712;9.192;2023-05-16T06:01:31;15.80;99.90
28460;DHT22;32528;45.712;9.192;2023-05-16T06:03:32;15.90;99.90
28460;DHT22;32528;45.712;9.192;2023-05-16T06:05:32;16.00;99.90
28460;DHT22;32528;45.712;9.192;2023-05-16T06:07:33;16.10;99.90
28460;DHT22;32528;45.712;9.192;2023-05-16T06:09:34;16.10;99.90
28460;DHT22;32528;45.712;9.192;2023-05-16T06:11:35;16.20;99.90
28460;DHT22;32528;45.712;9.192;2023-05-16T06:13:35;16.10;99.90
28460;DHT22;32528;45.712;9.192;2023-05-16T06:15:36;16.30;99.90
28460;DHT22;32528;45.712;9.192;2023-05-16T06:17:37;16.40;99.90
28460;DHT22;32528;45.712;9.192;2023-05-16T06:19:38;16.50;99.90
28460;DHT22;32528;45.712;9.192;2023-05-16T06:21:39;16.60;99.90
28460;DHT22;32528;45.712;9.192;2023-05-16T06:23:40;16.70;99.90
28460;DHT22;32528;45.712;9.192;2023-05-16T06:25:41;16.80;99.90
28460;DHT22;32528;45.712;9.192;2023-05-16T06:27:41;16.80;99.90
28460;DHT22;32528;45.712;9.192;2023-05-16T06:29:42;16.90;99.90
28460;DHT22;32528;45.712;9.192;2023-05-16T06:31:44;16.90;99.90
28460;DHT22;32528;45.712;9.192;2023-05-16T06:33:46;17.00;99.90
28460;DHT22;32528;45.712;9.192;2023-05-16T06:35:47;17.00;99.90
28460;DHT22;32528;45.712;9.192;2023-05-16T06:37:48;17.00;99.90
28460;DHT22;32528;45.712;9.192;2023-05-16T06:39:49;17.00;99.90
28460;DHT22;32528;45.712;9.192;2023-05-16T06:41:50;16.90;99.90
28460;DHT22;32528;45.712;9.192;2023-05-16T06:43:51;17.00;99.90
28460;DHT22;32528;45.712;9.192;2023-05-16T06:45:52;17.00;99.90
28460;DHT22;32528;45.712;9.192;2023-05-16T06:47:52;17.10;99.90
28460;DHT22;32528;45.712;9.192;2023-05-16T06:49:53;17.20;99.90
28460;DHT22;32528;45.712;9.192;2023-05-16T06:51:54;17.30;99.90
28460;DHT22;32528;45.712;9.192;2023-05-16T06:53:55;17.30;99.90
28460;DHT22;32528;45.712;9.192;2023-05-16T06:55:55;17.50;99.90
28460;DHT22;32528;45.712;9.192;2023-05-16T06:57:56;17.60;99.90
28460;DHT22;32528;45.712;9.192;2023-05-16T06:59:57;17.70;99.90
28460;DHT22;32528;45.712;9.192;2023-05-16T07:01:58;17.90;99.90
28460;DHT22;32528;45.712;9.192;2023-05-16T07:03:58;17.90;99.90
28460;DHT22;32528;45.712;9.192;2023-05-16T07:05:59;18.10;99.90
28460;DHT22;32528;45.712;9.192;2023-05-16T07:08:00;18.10;99.90
28460;DHT22;32528;45.712;9.192;2023-05-16T07:10:02;18.10;99.90
28460;DHT22;32528;45.712;9.192;2023-05-16T07:12:03;18.20;99.90
28460;DHT22;32528;45.712;9.192;2023-05-16T07:14:04;18.40;99.90
28460;DHT22;32528;45.712;9.192;2023-05-16T07:16:05;18.50;99.90
28460;DHT22;32528;45.712;9.192;2023-05-16T07:18:07;18.50;99.90
28460;DHT22;32528;45.712;9.192;2023-05-16T07:20:08;18.60;99.90
28460;DHT22;32528;45.712;9.192;2023-05-16T07:22:14;18.60;99.90
28460;DHT22;32528;45.712;9.192;2023-05-16T07:24:14;18.80;99.90
28460;DHT22;32528;45.712;9.192;2023-05-16T07:26:15;18.80;99.90
28460;DHT22;32528;45.712;9.192;2023-05-16T07:28:16;18.80;99.90
28460;DHT22;32528;45.712;9.192;2023-05-16T07:30:17;18.80;99.90
28460;DHT22;32528;45.712;9.192;2023-05-16T07:32:18;18.70;99.90
28460;DHT22;32528;45.712;9.192;2023-05-16T07:34:20;18.80;99.90
28460;DHT22;32528;45.712;9.192;2023-05-16T07:36:21;18.90;99.60
28460;DHT22;32528;45.712;9.192;2023-05-16T07:38:22;18.90;98.50
28460;DHT22;32528;45.712;9.192;2023-05-16T07:40:22;18.90;97.80
28460;DHT22;32528;45.712;9.192;2023-05-16T07:42:27;19.00;97.50
28460;DHT22;32528;45.712;9.192;2023-05-16T07:44:28;19.00;97.10
28460;DHT22;32528;45.712;9.192;2023-05-16T07:46:29;19.00;97.30
28460;DHT22;32528;45.712;9.192;2023-05-16T07:48:30;19.20;96.90
28460;DHT22;32528;45.712;9.192;2023-05-16T07:50:30;19.50;96.40
28460;DHT22;32528;45.712;9.192;2023-05-16T07:52:31;19.40;95.30
28460;DHT22;32528;45.712;9.192;2023-05-16T07:54:33;19.50;95.10
28460;DHT22;32528;45.712;9.192;2023-05-16T07:56:34;19.50;95.60
28460;DHT22;32528;45.712;9.192;2023-05-16T07:58:35;19.60;94.80
28460;DHT22;32528;45.712;9.192;2023-05-16T08:00:35;19.60;94.70
28460;DHT22;32528;45.712;9.192;2023-05-16T08:02:37;19.70;94.90
28460;DHT22;32528;45.712;9.192;2023-05-16T08:04:37;19.90;94.40
28460;DHT22;32528;45.712;9.192;2023-05-16T08:06:38;19.90;94.40
28460;DHT22;32528;45.712;9.192;2023-05-16T08:08:39;19.90;94.40
28460;DHT22;32528;45.712;9.192;2023-05-16T08:10:40;20.00;94.10
28460;DHT22;32528;45.712;9.192;2023-05-16T08:12:40;20.10;93.50
28460;DHT22;32528;45.712;9.192;2023-05-16T08:14:41;20.20;93.50
28460;DHT22;32528;45.712;9.192;2023-05-16T08:16:41;20.20;93.20
28460;DHT22;32528;45.712;9.192;2023-05-16T08:18:42;20.00;93.30
28460;DHT22;32528;45.712;9.192;2023-05-16T08:20:43;19.90;93.40
28460;DHT22;32528;45.712;9.192;2023-05-16T08:22:43;20.00;93.50
28460;DHT22;32528;45.712;9.192;2023-05-16T08:24:44;19.90;93.50
28460;DHT22;32528;45.712;9.192;2023-05-16T08:26:44;19.90;93.70
28460;DHT22;32528;45.712;9.192;2023-05-16T08:28:45;19.70;93.60
28460;DHT22;32528;45.712;9.192;2023-05-16T08:30:46;19.50;93.80
28460;DHT22;32528;45.712;9.192;2023-05-16T08:32:47;19.40;93.90
28460;DHT22;32528;45.712;9.192;2023-05-16T08:34:47;19.30;94.30
28460;DHT22;32528;45.712;9.192;2023-05-16T08:36:48;19.30;94.60
28460;DHT22;32528;45.712;9.192;2023-05-16T08:38:49;19.30;94.70
28460;DHT22;32528;45.712;9.192;2023-05-16T08:40:50;19.30;94.50
28460;DHT22;32528;45.712;9.192;2023-05-16T08:42:50;19.30;94.70
28460;DHT22;32528;45.712;9.192;2023-05-16T08:44:51;19.30;94.60
28460;DHT22;32528;45.712;9.192;2023-05-16T08:46:52;19.30;94.90
28460;DHT22;32528;45.712;9.192;2023-05-16T08:48:53;19.40;94.70
28460;DHT22;32528;45.712;9.192;2023-05-16T08:51:02;19.30;94.70
28460;DHT22;32528;45.712;9.192;2023-05-16T08:53:07;19.30;94.80
28460;DHT22;32528;45.712;9.192;2023-05-16T08:55:09;19.30;95.10
28460;DHT22;32528;45.712;9.192;2023-05-16T08:57:11;19.40;94.90
28460;DHT22;32528;45.712;9.192;2023-05-16T08:59:13;19.50;95.20
28460;DHT22;32528;45.712;9.192;2023-05-16T09:01:13;19.60;95.10
28460;DHT22;32528;45.712;9.192;2023-05-16T09:03:16;19.70;94.60
28460;DHT22;32528;45.712;9.192;2023-05-16T09:05:16;19.60;94.50
28460;DHT22;32528;45.712;9.192;2023-05-16T09:07:18;19.60;94.50
28460;DHT22;32528;45.712;9.192;2023-05-16T09:09:18;19.50;94.40
28460;DHT22;32528;45.712;9.192;2023-05-16T09:11:19;19.50;94.50
28460;DHT22;32528;45.712;9.192;2023-05-16T09:13:21;19.50;94.60
28460;DHT22;32528;45.712;9.192;2023-05-16T09:15:21;19.50;94.90
28460;DHT22;32528;45.712;9.192;2023-05-16T09:17:22;19.40;95.10
28460;DHT22;32528;45.712;9.192;2023-05-16T09:19:22;19.30;95.00
28460;DHT22;32528;45.712;9.192;2023-05-16T09:21:25;19.20;95.40
28460;DHT22;32528;45.712;9.192;2023-05-16T09:23:26;19.30;95.40
28460;DHT22;32528;45.712;9.192;2023-05-16T09:25:30;19.30;95.30
28460;DHT22;32528;45.712;9.192;2023-05-16T09:27:31;19.20;95.40
28460;DHT22;32528;45.712;9.192;2023-05-16T09:29:32;19.10;95.50
28460;DHT22;32528;45.712;9.192;2023-05-16T09:31:33;19.10;95.80
28460;DHT22;32528;45.712;9.192;2023-05-16T09:33:37;19.00;95.80
28460;DHT22;32528;45.712;9.192;2023-05-16T09:35:41;19.00;96.20
28460;DHT22;32528;45.712;9.192;2023-05-16T09:37:45;18.90;96.30
28460;DHT22;32528;45.712;9.192;2023-05-16T09:39:46;19.00;96.10
28460;DHT22;32528;45.712;9.192;2023-05-16T09:41:50;18.90;96.40
28460;DHT22;32528;45.712;9.192;2023-05-16T09:43:52;19.00;95.90
28460;DHT22;32528;45.712;9.192;2023-05-16T09:45:52;18.80;95.90
28460;DHT22;32528;45.712;9.192;2023-05-16T09:47:57;19.00;95.70
28460;DHT22;32528;45.712;9.192;2023-05-16T09:49:58;19.10;96.30
28460;DHT22;32528;45.712;9.192;2023-05-16T09:52:00;19.10;95.70
28460;DHT22;32528;45.712;9.192;2023-05-16T09:54:01;19.00;96.10
28460;DHT22;32528;45.712;9.192;2023-05-16T09:56:03;19.10;95.30
28460;DHT22;32528;45.712;9.192;2023-05-16T09:58:04;19.10;95.20
28460;DHT22;32528;45.712;9.192;2023-05-16T10:00:06;19.00;95.30
28460;DHT22;32528;45.712;9.192;2023-05-16T10:02:09;19.10;95.80
28460;DHT22;32528;45.712;9.192;2023-05-16T10:04:10;19.10;95.80
28460;DHT22;32528;45.712;9.192;2023-05-16T10:06:13;19.00;96.20
28460;DHT22;32528;45.712;9.192;2023-05-16T10:08:14;18.90;96.80
28460;DHT22;32528;45.712;9.192;2023-05-16T10:10:15;19.00;96.30
28460;DHT22;32528;45.712;9.192;2023-05-16T10:12:16;19.00;96.70
28460;DHT22;32528;45.712;9.192;2023-05-16T10:14:17;18.80;97.10
28460;DHT22;32528;45.712;9.192;2023-05-16T10:16:19;18.70;96.40
28460;DHT22;32528;45.712;9.192;2023-05-16T10:18:22;18.80;96.70
28460;DHT22;32528;45.712;9.192;2023-05-16T10:20:22;18.90;96.20
28460;DHT22;32528;45.712;9.192;2023-05-16T10:22:23;19.00;96.20
28460;DHT22;32528;45.712;9.192;2023-05-16T10:24:28;19.20;96.30
28460;DHT22;32528;45.712;9.192;2023-05-16T10:26:30;19.10;96.40
28460;DHT22;32528;45.712;9.192;2023-05-16T10:28:33;19.10;95.40
28460;DHT22;32528;45.712;9.192;2023-05-16T10:30:33;19.10;95.50
28460;DHT22;32528;45.712;9.192;2023-05-16T10:32:35;19.20;95.50
28460;DHT22;32528;45.712;9.192;2023-05-16T10:34:36;19.40;96.20
28460;DHT22;32528;45.712;9.192;2023-05-16T10:36:38;19.60;95.90
28460;DHT22;32528;45.712;9.192;2023-05-16T10:38:39;19.70;95.30
28460;DHT22;32528;45.712;9.192;2023-05-16T10:40:42;19.70;95.30
28460;DHT22;32528;45.712;9.192;2023-05-16T10:42:43;19.80;95.70
28460;DHT22;32528;45.712;9.192;2023-05-16T10:44:44;19.90;95.40
28460;DHT22;32528;45.712;9.192;2023-05-16T10:46:45;19.80;95.40
28460;DHT22;32528;45.712;9.192;2023-05-16T10:48:46;19.70;95.70
28460;DHT22;32528;45.712;9.192;2023-05-16T10:50:47;19.70;95.70
28460;DHT22;32528;45.712;9.192;2023-05-16T10:52:48;19.70;95.60
28460;DHT22;32528;45.712;9.192;2023-05-16T10:54:51;19.80;95.60
28460;DHT22;32528;45.712;9.192;2023-05-16T10:56:55;19.80;95.70
28460;DHT22;32528;45.712;9.192;2023-05-16T10:58:56;19.90;95.50
28460;DHT22;32528;45.712;9.192;2023-05-16T11:03:21;19.90;96.00
28460;DHT22;32528;45.712;9.192;2023-05-16T11:05:27;20.00;96.00
28460;DHT22;32528;45.712;9.192;2023-05-16T11:07:32;19.90;96.00
28460;DHT22;32528;45.712;9.192;2023-05-16T11:09:33;19.90;96.00
28460;DHT22;32528;45.712;9.192;2023-05-16T11:13:54;19.80;96.10
28460;DHT22;32528;45.712;9.192;2023-05-16T11:16:25;19.60;96.10
28460;DHT22;32528;45.712;9.192;2023-05-16T11:18:15;19.70;96.40
28460;DHT22;32528;45.712;9.192;2023-05-16T11:20:36;19.70;96.40
28460;DHT22;32528;45.712;9.192;2023-05-16T11:22:39;19.80;96.50
28460;DHT22;32528;45.712;9.192;2023-05-16T11:24:47;19.70;96.70
28460;DHT22;32528;45.712;9.192;2023-05-16T11:26:48;19.40;96.80
28460;DHT22;32528;45.712;9.192;2023-05-16T11:28:49;19.20;97.10
28460;DHT22;32528;45.712;9.192;2023-05-16T11:30:56;19.00;97.30
28460;DHT22;32528;45.712;9.192;2023-05-16T11:32:57;18.80;97.60
28460;DHT22;32528;45.712;9.192;2023-05-16T11:34:57;18.70;97.90
28460;DHT22;32528;45.712;9.192;2023-05-16T11:36:58;18.60;98.20
28460;DHT22;32528;45.712;9.192;2023-05-16T11:39:06;18.50;98.40
28460;DHT22;32528;45.712;9.192;2023-05-16T11:41:08;18.50;98.40
28460;DHT22;32528;45.712;9.192;2023-05-16T11:43:09;18.50;98.60
28460;DHT22;32528;45.712;9.192;2023-05-16T11:45:11;18.70;98.70
28460;DHT22;32528;45.712;9.192;2023-05-16T11:47:12;18.80;98.40
28460;DHT22;32528;45.712;9.192;2023-05-16T11:49:13;18.90;98.30
28460;DHT22;32528;45.712;9.192;2023-05-16T11:51:16;19.00;98.20
28460;DHT22;32528;45.712;9.192;2023-05-16T11:53:18;19.10;98.10
28460;DHT22;32528;45.712;9.192;2023-05-16T11:55:20;19.20;98.00
28460;DHT22;32528;45.712;9.192;2023-05-16T11:57:22;19.20;98.30
28460;DHT22;32528;45.712;9.192;2023-05-16T11:59:23;19.40;97.90
28460;DHT22;32528;45.712;9.192;2023-05-16T12:01:24;19.50;97.80
28460;DHT22;32528;45.712;9.192;2023-05-16T12:03:25;19.60;98.00
28460;DHT22;32528;45.712;9.192;2023-05-16T12:05:26;19.50;97.50
28460;DHT22;32528;45.712;9.192;2023-05-16T12:07:28;19.50;97.90
28460;DHT22;32528;45.712;9.192;2023-05-16T12:09:29;19.60;97.70
28460;DHT22;32528;45.712;9.192;2023-05-16T12:11:29;19.60;96.60
28460;DHT22;32528;45.712;9.192;2023-05-16T12:13:30;19.50;97.00
28460;DHT22;32528;45.712;9.192;2023-05-16T12:15:31;19.40;97.50
28460;DHT22;32528;45.712;9.192;2023-05-16T12:17:33;19.50;97.30
28460;DHT22;32528;45.712;9.192;2023-05-16T12:19:33;19.60;97.70
28460;DHT22;32528;45.712;9.192;2023-05-16T12:21:34;19.50;97.70
28460;DHT22;32528;45.712;9.192;2023-05-16T12:23:35;19.40;96.80
28460;DHT22;32528;45.712;9.192;2023-05-16T12:25:36;19.40;97.10
28460;DHT22;32528;45.712;9.192;2023-05-16T12:27:41;19.50;96.90
28460;DHT22;32528;45.712;9.192;2023-05-16T12:29:46;19.60;98.50
28460;DHT22;32528;45.712;9.192;2023-05-16T12:31:46;19.90;97.10
28460;DHT22;32528;45.712;9.192;2023-05-16T12:33:47;20.10;96.40
28460;DHT22;32528;45.712;9.192;2023-05-16T12:35:52;20.30;96.70
28460;DHT22;32528;45.712;9.192;2023-05-16T12:37:53;20.60;95.70
28460;DHT22;32528;45.712;9.192;2023-05-16T12:39:58;20.60;95.90
28460;DHT22;32528;45.712;9.192;2023-05-16T12:42:03;20.60;96.00
28460;DHT22;32528;45.712;9.192;2023-05-16T12:44:10;20.50;96.30
28460;DHT22;32528;45.712;9.192;2023-05-16T12:46:12;20.30;96.60
28460;DHT22;32528;45.712;9.192;2023-05-16T12:48:13;20.00;95.90
28460;DHT22;32528;45.712;9.192;2023-05-16T12:50:14;20.00;97.00
28460;DHT22;32528;45.712;9.192;2023-05-16T12:52:19;20.10;95.90
28460;DHT22;32528;45.712;9.192;2023-05-16T12:54:20;20.30;96.60
28460;DHT22;32528;45.712;9.192;2023-05-16T12:56:22;20.50;95.80
28460;DHT22;32528;45.712;9.192;2023-05-16T12:58:22;20.50;95.50
28460;DHT22;32528;45.712;9.192;2023-05-16T13:00:25;20.70;94.90
28460;DHT22;32528;45.712;9.192;2023-05-16T13:02:26;21.10;95.00
28460;DHT22;32528;45.712;9.192;2023-05-16T13:04:26;21.30;95.20
28460;DHT22;32528;45.712;9.192;2023-05-16T13:06:27;21.40;94.60